LSZH/ZRH METAR and TAF weather

Enter ICAO airport designator
Station Type Date Time Source
LSZH METAR 2019/08/20 10:20 UTC NOAA

LSZH 201020Z 34005KT 9999 -RA FEW009 SCT014 BKN070 16/15 Q1023 TEMPO 4500 RA


Station Type Date Time Source
LSZH Decoded METAR 2019/08/20 10:20 UTC NOAA

Zurich-Kloten, Switzerland (LSZH) 47-29N 008-32E 432M
Aug 20, 2019 - 06:20 AM EDT / 2019.08.20 1020 UTC
Wind: from the NNW (340 degrees) at 6 MPH (5 KT):0
Visibility: greater than 7 mile(s):0
Sky conditions: mostly cloudy
Weather: light rain
Temperature: 60 F (16 C)
Dew Point: 59 F (15 C)
Relative Humidity: 93%
Pressure (altimeter): 30.21 in. Hg (1023 hPa)
ob: LSZH 201020Z 34005KT 9999 -RA FEW009 SCT014 BKN070 16/15 Q1023 TEMPO 4500 RA
cycle: 10

Station Type Date Time Source
LSZH TAF 2019/08/20 09:33 UTC NOAA

TAF LSZH 200825Z 2009/2115 30005KT 8000 -RA FEW004 SCT010 BKN030 TX18/2014Z TN11/2104Z TX22/2114Z
TEMPO 2009/2021 4000 RA SCT009 BKN012 PROB40
TEMPO 2010/2017 2500 +RA BKN008
BECMG 2020/2023 NSW PROB40 2103/2107 4000 BCFG BKN005
BECMG 2106/2109 04008KT

Example: see airport list